Atlanta, Illinois
Current Conditions -  °F | °C
As of 4:55 PM on Friday 31 Oct 2014 (Local Time) from KAAA Reporting Station
Scattered Clouds Scattered Clouds  
Wind Chill: 35°   Ceiling: Unl
Heat Index: 43°   Visibility: 10mi
Dew Point: 22°   Wind: 17mph
Humidity: 44%   Direction: 350°N
Pressure: 30.29"   Gusts: 26mph
Location:  40.26°N, 89.23°W
Report Text: KAAA 312155Z AUTO 35015G23KT 10SM SCT050 06/M05 A3029 RMK AO2 T00621053
Loading
Personal Weather Stations






























Interactive Weather Map
Tropical Storm Tracking
New forecast layout! Learn more

10-Day Weather Forecast

Advertisements
Track Severe Weather on mobile